Bonaria — ICUS — position and weather

sailwx.info

Track history (hours):
 
Tides and Currents Weather Stations Pressure Air Temp Water Temp Dewpoint Dewpoint Depression Visibility Wind Speed Wind Dir Waves Ship Positions

Bonaria

Last reported at 2017-Oct-20 08:58 UTC. Time now 2017-Oct-20 09:11 UTC.
Position N 39°13' E 009°06'.

Length 214 m; draft 7 m.

Type: Ship. MMSI: 247322400.

Date/timePositionNaut miles runAvg speedWind from/ knotsBaromVisibWave heightAir tempDewpointWater temp
2017-Oct-20 08:58N 39°13' E 009°06'0 0.0
2017-Oct-20 08:28N 39°13' E 009°06'0 0.0
2017-Oct-20 07:58N 39°13' E 009°06'0 0.0
2017-Oct-20 07:28N 39°13' E 009°06'0 0.0
2017-Oct-20 06:58N 39°13' E 009°06'0 0.0
2017-Oct-20 06:30N 39°13' E 009°06'3 6.9
2017-Oct-20 06:00N 39°10' E 009°08'1121.4
2017-Oct-20 05:30N 39°04' E 009°20'1021.0
2017-Oct-20 05:00N 38°59' E 009°32'22121.4
2017-Oct-19 18:41N 40°33' E 013°52'421.6
2017-Oct-19 18:30N 40°35' E 013°57'1121.2
2017-Oct-19 18:00N 40°41' E 014°08'1020.4
2017-Oct-19 17:30N 40°49' E 014°17'2 0.1
2017-Oct-19 06:21N 40°51' E 014°16'1 3.1
2017-Oct-19 06:00N 40°50' E 014°17'24421.2
2017-Oct-18 18:32N 38°59' E 009°34'021.7
2017-Oct-18 18:30N 38°59' E 009°33'1120.8
2017-Oct-18 18:00N 39°03' E 009°21'1020.9
2017-Oct-18 17:30N 39°08' E 009°09'5 9.3
2017-Oct-18 17:00N 39°13' E 009°06'0 0.0
2017-Oct-18 16:29N 39°13' E 009°06'0 0.0
2017-Oct-18 15:59N 39°13' E 009°06'0 0.0
2017-Oct-18 15:29N 39°13' E 009°06'0 0.0
2017-Oct-18 14:59N 39°13' E 009°06'0 0.0
2017-Oct-18 13:59N 39°13' E 009°06'0 0.0
2017-Oct-18 13:29N 39°13' E 009°06'0 0.0
2017-Oct-18 12:59N 39°13' E 009°06'0 0.0
2017-Oct-18 12:29N 39°13' E 009°06'0 0.0
2017-Oct-18 11:59N 39°13' E 009°06'0 0.0
2017-Oct-18 11:29N 39°13' E 009°06'0 0.0
2017-Oct-18 10:59N 39°13' E 009°06'0 0.0
2017-Oct-18 10:29N 39°13' E 009°06'0 0.0
2017-Oct-18 09:59N 39°13' E 009°06'0 0.0
2017-Oct-18 09:29N 39°13' E 009°06'0 0.0
2017-Oct-18 08:59N 39°13' E 009°06'0 0.0
2017-Oct-18 08:29N 39°13' E 009°06'0 0.0
2017-Oct-18 07:59N 39°13' E 009°06'0 0.0
2017-Oct-18 07:29N 39°13' E 009°06'0 0.0
2017-Oct-18 06:59N 39°13' E 009°06'0 0.0
2017-Oct-18 06:30N 39°13' E 009°06'2 4.4
2017-Oct-18 05:59N 39°10' E 009°07'1020.1
2017-Oct-18 05:30N 39°04' E 009°17'2919.8
2017-Oct-18 04:02N 39°06' E 009°54'2021.9
2017-Oct-18 03:08N 39°15' E 010°17'3221.8
2017-Oct-18 01:39N 39°29' E 010°55'2021.7
2017-Oct-18 00:46N 39°37' E 011°17'721.9
2017-Oct-18 00:28N 39°40' E 011°25'2721.9
2017-Oct-17 23:13N 39°52' E 011°57'522.0
2017-Oct-17 22:58N 39°54' E 012°03'7821.8
2017-Oct-17 19:23N 40°28' E 013°36'820.9
2017-Oct-17 19:00N 40°31' E 013°45'1020.8
2017-Oct-17 18:30N 40°35' E 013°58'1020.7
2017-Oct-17 18:00N 40°42' E 014°09'1019.4
2017-Oct-17 17:30N 40°49' E 014°17'1 2.1
2017-Oct-17 16:53N 40°50' E 014°16'0 0.0
2017-Oct-17 16:29N 40°50' E 014°16'0 0.0
2017-Oct-17 15:59N 40°50' E 014°16'0 0.0
2017-Oct-17 15:08N 40°50' E 014°16'0 0.1
2017-Oct-17 14:56N 40°50' E 014°16'0 0.0
2017-Oct-17 13:26N 40°50' E 014°16'0 0.0
2017-Oct-17 12:59N 40°50' E 014°16'0 0.0
2017-Oct-17 12:17N 40°50' E 014°16'0 0.0
2017-Oct-17 11:59N 40°50' E 014°16'0 0.0
2017-Oct-17 11:29N 40°50' E 014°16'0 0.0
2017-Oct-17 06:35N 40°50' E 014°16'0 0.6
2017-Oct-17 06:28N 40°50' E 014°16'2 4.5
2017-Oct-17 06:00N 40°49' E 014°17'918.1
2017-Oct-17 05:30N 40°42' E 014°08'3521.0
2017-Oct-17 03:50N 40°25' E 013°28'721.0
2017-Oct-17 03:29N 40°22' E 013°19'1921.1
2017-Oct-17 02:34N 40°14' E 012°56'120.9
2017-Oct-17 02:30N 40°13' E 012°55'1721.1
2017-Oct-17 01:43N 40°06' E 012°35'521.2
2017-Oct-17 01:30N 40°04' E 012°30'1821.5
2017-Oct-17 00:40N 39°56' E 012°09'821.5
2017-Oct-17 00:18N 39°53' E 011°59'1121.7
2017-Oct-16 23:48N 39°48' E 011°47'1121.7
2017-Oct-16 23:19N 39°43' E 011°35'921.8
2017-Oct-16 22:54N 39°39' E 011°24'921.4
2017-Oct-16 22:30N 39°36' E 011°14'5821.4
2017-Oct-16 19:47N 39°11' E 010°06'621.4
2017-Oct-16 19:30N 39°08' E 009°59'1221.2
2017-Oct-16 18:56N 39°03' E 009°45'1021.4
2017-Oct-16 18:30N 38°59' E 009°34'1120.4
2017-Oct-16 17:56N 39°04' E 009°20'921.1
2017-Oct-16 17:30N 39°09' E 009°10'5 9.9
2017-Oct-16 17:00N 39°13' E 009°06'0 0.0
2017-Oct-16 16:29N 39°13' E 009°06'0 0.0
2017-Oct-16 15:59N 39°13' E 009°06'0 0.0
2017-Oct-16 15:29N 39°13' E 009°06'0 0.0
2017-Oct-16 14:59N 39°13' E 009°06'0 0.0
2017-Oct-16 14:29N 39°13' E 009°06'0 0.0
2017-Oct-16 13:29N 39°13' E 009°06'0 0.0
2017-Oct-16 12:59N 39°13' E 009°06'0 0.0
2017-Oct-16 12:29N 39°13' E 009°06'0 0.0
2017-Oct-16 11:59N 39°13' E 009°06'0 0.0
2017-Oct-16 11:29N 39°13' E 009°06'0 0.0
2017-Oct-16 10:59N 39°13' E 009°06'0 0.0
2017-Oct-16 10:29N 39°13' E 009°06'0 0.0
2017-Oct-16 09:59N 39°13' E 009°06'0 0.0
2017-Oct-16 09:29N 39°13' E 009°06'0 0.0
2017-Oct-16 08:59N 39°13' E 009°06'0 0.0
2017-Oct-16 08:29N 39°13' E 009°06'0 0.0
2017-Oct-16 07:59N 39°13' E 009°06'0 0.0
2017-Oct-16 07:29N 39°13' E 009°06'0 0.0
2017-Oct-16 06:59N 39°13' E 009°06'0 0.0
2017-Oct-16 06:29N 39°13' E 009°06'0 0.0
2017-Oct-16 05:59N 39°13' E 009°06'0 0.0
2017-Oct-16 05:29N 39°13' E 009°06'0 0.0
2017-Oct-16 04:59N 39°13' E 009°06'0 0.0
2017-Oct-16 04:29N 39°13' E 009°06'0 0.0
2017-Oct-16 03:59N 39°13' E 009°06'0 0.0
2017-Oct-16 03:29N 39°13' E 009°06'0 0.0
2017-Oct-16 02:59N 39°13' E 009°06'0 0.0
2017-Oct-16 02:29N 39°13' E 009°06'0 0.0
2017-Oct-16 01:58N 39°13' E 009°06'0 0.0
2017-Oct-16 01:28N 39°13' E 009°06'0 0.0
2017-Oct-16 00:58N 39°13' E 009°06'0 0.0
2017-Oct-16 00:28N 39°13' E 009°06'0 0.0
2017-Oct-15 23:58N 39°13' E 009°06'0 0.0
2017-Oct-15 23:28N 39°13' E 009°06'0 0.0
2017-Oct-15 22:58N 39°13' E 009°06'0 0.0
2017-Oct-15 22:28N 39°13' E 009°06'0 0.0
2017-Oct-15 21:58N 39°13' E 009°06'0 0.0
2017-Oct-15 21:28N 39°13' E 009°06'0 0.0
2017-Oct-15 20:58N 39°13' E 009°06'0 0.0
2017-Oct-15 20:28N 39°13' E 009°06'0 0.0
2017-Oct-15 19:58N 39°13' E 009°06'0 0.0
2017-Oct-15 19:28N 39°13' E 009°06'0 0.0
2017-Oct-15 18:58N 39°13' E 009°06'0 0.0
2017-Oct-15 18:28N 39°13' E 009°06'0 0.0
2017-Oct-15 17:58N 39°13' E 009°06'0 0.0
2017-Oct-15 17:28N 39°13' E 009°06'0 0.0
2017-Oct-15 16:58N 39°13' E 009°06'0 0.0
2017-Oct-15 16:28N 39°13' E 009°06'0 0.0
2017-Oct-15 15:58N 39°13' E 009°06'0 0.0
2017-Oct-15 15:28N 39°13' E 009°06'0 0.0
2017-Oct-15 14:58N 39°13' E 009°06'0 0.0
2017-Oct-15 13:58N 39°13' E 009°06'0 0.0
2017-Oct-15 13:28N 39°13' E 009°06'0 0.0
2017-Oct-15 12:58N 39°13' E 009°06'0 0.0
2017-Oct-15 12:28N 39°13' E 009°06'0 0.0
2017-Oct-15 11:58N 39°13' E 009°06'0 0.0
2017-Oct-15 11:28N 39°13' E 009°06'0 0.0
2017-Oct-15 10:58N 39°13' E 009°06'0 0.0
2017-Oct-15 10:25N 39°13' E 009°06'0 0.0
2017-Oct-15 09:58N 39°13' E 009°06'0 0.0
2017-Oct-15 09:28N 39°13' E 009°06'0 0.0
2017-Oct-15 08:58N 39°13' E 009°06'0 0.0
2017-Oct-15 08:28N 39°13' E 009°06'0 0.0
2017-Oct-15 07:58N 39°13' E 009°06'0 0.0
2017-Oct-15 07:28N 39°13' E 009°06'0 0.0
2017-Oct-15 06:58N 39°13' E 009°06'0 0.0
2017-Oct-15 06:28N 39°13' E 009°06'0 0.0
2017-Oct-15 05:58N 39°13' E 009°06'0 0.1
2017-Oct-15 05:30N 39°13' E 009°06'4 7.2
2017-Oct-15 05:00N 39°09' E 009°09'918.9
2017-Oct-15 04:30N 39°04' E 009°19'919.3
2017-Oct-15 04:00N 38°59' E 009°29'5619.1
2017-Oct-15 01:05N 38°46' E 010°39'219.5
2017-Oct-15 00:59N 38°46' E 010°41'919.6
2017-Oct-15 00:30N 38°44' E 010°53'8519.6
2017-Oct-14 20:09N 38°25' E 012°39'319.9
2017-Oct-14 19:59N 38°24' E 012°43'1019.7
2017-Oct-14 19:30N 38°22' E 012°55'1019.7
2017-Oct-14 19:00N 38°19' E 013°07'1019.6
2017-Oct-14 18:30N 38°17' E 013°20'918.7
2017-Oct-14 18:00N 38°09' E 013°26'4 7.4
2017-Oct-14 17:30N 38°08' E 013°22'0 0.0
2017-Oct-14 16:58N 38°08' E 013°22'0 0.0
2017-Oct-14 16:28N 38°08' E 013°22'0 0.0
2017-Oct-14 15:58N 38°08' E 013°22'0 0.0
2017-Oct-14 15:28N 38°08' E 013°22'0 0.0
2017-Oct-14 14:58N 38°08' E 013°22'0 0.0
2017-Oct-14 14:28N 38°08' E 013°22'0 0.0
2017-Oct-14 13:58N 38°08' E 013°22'0 0.0
2017-Oct-14 13:28N 38°08' E 013°22'0 0.0
2017-Oct-14 12:58N 38°08' E 013°22'0 0.0
2017-Oct-14 12:28N 38°08' E 013°22'0 0.0
2017-Oct-14 11:58N 38°08' E 013°22'0 0.0
2017-Oct-14 11:28N 38°08' E 013°22'0 0.0
2017-Oct-14 10:58N 38°08' E 013°22'0 0.0
2017-Oct-14 10:28N 38°08' E 013°22'0 0.0
2017-Oct-14 09:58N 38°08' E 013°22'0 0.0
2017-Oct-14 09:28N 38°08' E 013°22'0 0.1
2017-Oct-14 08:55N 38°08' E 013°22'0 0.1
2017-Oct-14 08:28N 38°08' E 013°22'0 0.0
2017-Oct-14 07:58N 38°08' E 013°22'0 0.0
2017-Oct-14 07:28N 38°08' E 013°22'0 0.0
2017-Oct-14 06:58N 38°08' E 013°22'0 0.0
2017-Oct-14 06:28N 38°08' E 013°22'0 0.0
2017-Oct-14 05:58N 38°08' E 013°22'0 0.0
2017-Oct-14 05:30N 38°08' E 013°22'2 3.2
2017-Oct-14 05:01N 38°08' E 013°24'815.9
2017-Oct-14 04:31N 38°16' E 013°22'1019.3
2017-Oct-14 04:00N 38°18' E 013°10'1019.5
2017-Oct-14 03:30N 38°21' E 012°58'1019.5
2017-Oct-14 03:00N 38°23' E 012°46'15219.4
2017-Oct-13 19:10N 38°58' E 009°36'1219.5
2017-Oct-13 18:34N 39°03' E 009°23'119.7
2017-Oct-13 18:31N 39°03' E 009°21'1019.4
2017-Oct-13 18:00N 39°08' E 009°10'510.2
2017-Oct-13 17:29N 39°13' E 009°06'0 0.0
2017-Oct-13 17:00N 39°13' E 009°06'0 0.0
2017-Oct-13 16:30N 39°13' E 009°06'0 0.0
2017-Oct-13 16:00N 39°13' E 009°06'0 0.0
2017-Oct-13 15:30N 39°13' E 009°06'0 0.0
2017-Oct-13 10:21N 39°13' E 009°06'0 0.0
2017-Oct-13 10:00N 39°13' E 009°06'0 0.0
2017-Oct-13 09:30N 39°13' E 009°06'0 0.0
2017-Oct-13 09:00N 39°13' E 009°06'0 0.0
2017-Oct-13 08:30N 39°13' E 009°06'0 0.0
2017-Oct-13 08:00N 39°13' E 009°06'0 0.0
2017-Oct-13 07:30N 39°13' E 009°06'0 0.0
2017-Oct-13 07:00N 39°13' E 009°06'0 0.0
2017-Oct-13 06:30N 39°13' E 009°06'1 1.8
2017-Oct-13 06:00N 39°12' E 009°06'917.0
2017-Oct-13 05:30N 39°06' E 009°15'1121.1
2017-Oct-13 04:59N 39°01' E 009°27'22521.8
2017-Oct-12 18:40N 40°33' E 013°53'321.5
2017-Oct-12 18:30N 40°35' E 013°57'1121.4
2017-Oct-12 18:01N 40°41' E 014°08'1019.8
2017-Oct-12 17:31N 40°49' E 014°17'2 3.5
2017-Oct-12 17:00N 40°50' E 014°16'0 0.0
2017-Oct-12 16:30N 40°50' E 014°16'0 0.0
2017-Oct-12 16:00N 40°50' E 014°16'0 0.0
2017-Oct-12 15:30N 40°50' E 014°16'0 0.0
2017-Oct-12 15:00N 40°50' E 014°16'0 0.0
2017-Oct-12 13:48N 40°50' E 014°16'0 0.0
2017-Oct-12 13:30N 40°50' E 014°16'0 0.0
2017-Oct-12 12:48N 40°50' E 014°16'0 0.0
2017-Oct-12 10:54N 40°50' E 014°16'0 0.0
2017-Oct-12 10:24N 40°50' E 014°16'0 0.0
2017-Oct-12 09:36N 40°50' E 014°16'0 0.0
2017-Oct-12 09:24N 40°50' E 014°16'0 0.0
2017-Oct-12 08:54N 40°50' E 014°16'0 0.0
2017-Oct-12 08:24N 40°50' E 014°16'0 0.0
2017-Oct-12 07:12N 40°50' E 014°16'0 0.0
2017-Oct-12 06:54N 40°50' E 014°16'0 0.0
2017-Oct-12 06:30N 40°50' E 014°16'2 3.1
2017-Oct-12 05:59N 40°49' E 014°17'23321.1
2017-Oct-11 18:59N 39°04' E 009°47'1121.8
2017-Oct-11 18:30N 38°58' E 009°35'1320.5
2017-Oct-11 17:53N 39°03' E 009°20'821.5
2017-Oct-11 17:30N 39°08' E 009°12'612.3
2017-Oct-11 17:00N 39°13' E 009°07'23410.5
2017-Oct-10 18:39N 40°34' E 013°53'321.5
2017-Oct-10 18:30N 40°35' E 013°57'1121.2
2017-Oct-10 18:00N 40°41' E 014°08'1020.0
2017-Oct-10 17:29N 40°49' E 014°17'2 0.9
2017-Oct-10 15:45N 40°50' E 014°16'0 0.0
2017-Oct-10 15:15N 40°50' E 014°16'0 0.0
2017-Oct-10 14:51N 40°50' E 014°16'0 0.0
2017-Oct-10 13:51N 40°50' E 014°16'0 0.0
2017-Oct-10 13:21N 40°50' E 014°16'0 0.0
2017-Oct-10 12:51N 40°50' E 014°16'0 0.0
2017-Oct-10 12:21N 40°50' E 014°16'0 0.0
2017-Oct-10 11:51N 40°50' E 014°16'0 0.0
2017-Oct-10 11:21N 40°50' E 014°16'0 0.0
2017-Oct-10 10:51N 40°50' E 014°16'0 0.0
2017-Oct-10 09:27N 40°50' E 014°16'  
Track history (hours):
 
Tides and Currents Weather Stations Pressure Air Temp Water Temp Dewpoint Dewpoint Depression Visibility Wind Speed Wind Dir Waves Ship Positions

Bonaria

Last reported at 2017-Oct-20 08:58 UTC. Time now 2017-Oct-20 09:11 UTC.
Position N 39°13' E 009°06'.

Length 214 m; draft 7 m.

Type: Ship. MMSI: 247322400.

Date/timePositionNaut miles runAvg speedWind from/ knotsBaromVisibWave heightAir tempDewpointWater temp
2017-Oct-20 08:58N 39°13' E 009°06'0 0.0
2017-Oct-20 08:28N 39°13' E 009°06'0 0.0
2017-Oct-20 07:58N 39°13' E 009°06'0 0.0
2017-Oct-20 07:28N 39°13' E 009°06'0 0.0
2017-Oct-20 06:58N 39°13' E 009°06'0 0.0
2017-Oct-20 06:30N 39°13' E 009°06'3 6.9
2017-Oct-20 06:00N 39°10' E 009°08'1121.4
2017-Oct-20 05:30N 39°04' E 009°20'1021.0
2017-Oct-20 05:00N 38°59' E 009°32'22121.4
2017-Oct-19 18:41N 40°33' E 013°52'421.6
2017-Oct-19 18:30N 40°35' E 013°57'1121.2
2017-Oct-19 18:00N 40°41' E 014°08'1020.4
2017-Oct-19 17:30N 40°49' E 014°17'2 0.1
2017-Oct-19 06:21N 40°51' E 014°16'1 3.1
2017-Oct-19 06:00N 40°50' E 014°17'24421.2
2017-Oct-18 18:32N 38°59' E 009°34'021.7
2017-Oct-18 18:30N 38°59' E 009°33'1120.8
2017-Oct-18 18:00N 39°03' E 009°21'1020.9
2017-Oct-18 17:30N 39°08' E 009°09'5 9.3
2017-Oct-18 17:00N 39°13' E 009°06'0 0.0
2017-Oct-18 16:29N 39°13' E 009°06'0 0.0
2017-Oct-18 15:59N 39°13' E 009°06'0 0.0
2017-Oct-18 15:29N 39°13' E 009°06'0 0.0
2017-Oct-18 14:59N 39°13' E 009°06'0 0.0
2017-Oct-18 13:59N 39°13' E 009°06'0 0.0
2017-Oct-18 13:29N 39°13' E 009°06'0 0.0
2017-Oct-18 12:59N 39°13' E 009°06'0 0.0
2017-Oct-18 12:29N 39°13' E 009°06'0 0.0
2017-Oct-18 11:59N 39°13' E 009°06'0 0.0
2017-Oct-18 11:29N 39°13' E 009°06'0 0.0
2017-Oct-18 10:59N 39°13' E 009°06'0 0.0
2017-Oct-18 10:29N 39°13' E 009°06'0 0.0
2017-Oct-18 09:59N 39°13' E 009°06'0 0.0
2017-Oct-18 09:29N 39°13' E 009°06'0 0.0
2017-Oct-18 08:59N 39°13' E 009°06'0 0.0
2017-Oct-18 08:29N 39°13' E 009°06'0 0.0
2017-Oct-18 07:59N 39°13' E 009°06'0 0.0
2017-Oct-18 07:29N 39°13' E 009°06'0 0.0
2017-Oct-18 06:59N 39°13' E 009°06'0 0.0
2017-Oct-18 06:30N 39°13' E 009°06'2 4.4
2017-Oct-18 05:59N 39°10' E 009°07'1020.1
2017-Oct-18 05:30N 39°04' E 009°17'2919.8
2017-Oct-18 04:02N 39°06' E 009°54'2021.9
2017-Oct-18 03:08N 39°15' E 010°17'3221.8
2017-Oct-18 01:39N 39°29' E 010°55'2021.7
2017-Oct-18 00:46N 39°37' E 011°17'721.9
2017-Oct-18 00:28N 39°40' E 011°25'2721.9
2017-Oct-17 23:13N 39°52' E 011°57'522.0
2017-Oct-17 22:58N 39°54' E 012°03'7821.8
2017-Oct-17 19:23N 40°28' E 013°36'820.9
2017-Oct-17 19:00N 40°31' E 013°45'1020.8
2017-Oct-17 18:30N 40°35' E 013°58'1020.7
2017-Oct-17 18:00N 40°42' E 014°09'1019.4
2017-Oct-17 17:30N 40°49' E 014°17'1 2.1
2017-Oct-17 16:53N 40°50' E 014°16'0 0.0
2017-Oct-17 16:29N 40°50' E 014°16'0 0.0
2017-Oct-17 15:59N 40°50' E 014°16'0 0.0
2017-Oct-17 15:08N 40°50' E 014°16'0 0.1
2017-Oct-17 14:56N 40°50' E 014°16'0 0.0
2017-Oct-17 13:26N 40°50' E 014°16'0 0.0
2017-Oct-17 12:59N 40°50' E 014°16'0 0.0
2017-Oct-17 12:17N 40°50' E 014°16'0 0.0
2017-Oct-17 11:59N 40°50' E 014°16'0 0.0
2017-Oct-17 11:29N 40°50' E 014°16'0 0.0
2017-Oct-17 06:35N 40°50' E 014°16'0 0.6
2017-Oct-17 06:28N 40°50' E 014°16'2 4.5
2017-Oct-17 06:00N 40°49' E 014°17'918.1
2017-Oct-17 05:30N 40°42' E 014°08'3521.0
2017-Oct-17 03:50N 40°25' E 013°28'721.0
2017-Oct-17 03:29N 40°22' E 013°19'1921.1
2017-Oct-17 02:34N 40°14' E 012°56'120.9
2017-Oct-17 02:30N 40°13' E 012°55'1721.1
2017-Oct-17 01:43N 40°06' E 012°35'521.2
2017-Oct-17 01:30N 40°04' E 012°30'1821.5
2017-Oct-17 00:40N 39°56' E 012°09'821.5
2017-Oct-17 00:18N 39°53' E 011°59'1121.7
2017-Oct-16 23:48N 39°48' E 011°47'1121.7
2017-Oct-16 23:19N 39°43' E 011°35'921.8
2017-Oct-16 22:54N 39°39' E 011°24'921.4
2017-Oct-16 22:30N 39°36' E 011°14'5821.4
2017-Oct-16 19:47N 39°11' E 010°06'621.4
2017-Oct-16 19:30N 39°08' E 009°59'1221.2
2017-Oct-16 18:56N 39°03' E 009°45'1021.4
2017-Oct-16 18:30N 38°59' E 009°34'1120.4
2017-Oct-16 17:56N 39°04' E 009°20'921.1
2017-Oct-16 17:30N 39°09' E 009°10'5 9.9
2017-Oct-16 17:00N 39°13' E 009°06'0 0.0
2017-Oct-16 16:29N 39°13' E 009°06'0 0.0
2017-Oct-16 15:59N 39°13' E 009°06'0 0.0
2017-Oct-16 15:29N 39°13' E 009°06'0 0.0
2017-Oct-16 14:59N 39°13' E 009°06'0 0.0
2017-Oct-16 14:29N 39°13' E 009°06'0 0.0
2017-Oct-16 13:29N 39°13' E 009°06'0 0.0
2017-Oct-16 12:59N 39°13' E 009°06'0 0.0
2017-Oct-16 12:29N 39°13' E 009°06'0 0.0
2017-Oct-16 11:59N 39°13' E 009°06'0 0.0
2017-Oct-16 11:29N 39°13' E 009°06'0 0.0
2017-Oct-16 10:59N 39°13' E 009°06'0 0.0
2017-Oct-16 10:29N 39°13' E 009°06'0 0.0
2017-Oct-16 09:59N 39°13' E 009°06'0 0.0
2017-Oct-16 09:29N 39°13' E 009°06'0 0.0
2017-Oct-16 08:59N 39°13' E 009°06'0 0.0
2017-Oct-16 08:29N 39°13' E 009°06'0 0.0
2017-Oct-16 07:59N 39°13' E 009°06'0 0.0
2017-Oct-16 07:29N 39°13' E 009°06'0 0.0
2017-Oct-16 06:59N 39°13' E 009°06'0 0.0
2017-Oct-16 06:29N 39°13' E 009°06'0 0.0
2017-Oct-16 05:59N 39°13' E 009°06'0 0.0
2017-Oct-16 05:29N 39°13' E 009°06'0 0.0
2017-Oct-16 04:59N 39°13' E 009°06'0 0.0
2017-Oct-16 04:29N 39°13' E 009°06'0 0.0
2017-Oct-16 03:59N 39°13' E 009°06'0 0.0
2017-Oct-16 03:29N 39°13' E 009°06'0 0.0
2017-Oct-16 02:59N 39°13' E 009°06'0 0.0
2017-Oct-16 02:29N 39°13' E 009°06'0 0.0
2017-Oct-16 01:58N 39°13' E 009°06'0 0.0
2017-Oct-16 01:28N 39°13' E 009°06'0 0.0
2017-Oct-16 00:58N 39°13' E 009°06'0 0.0
2017-Oct-16 00:28N 39°13' E 009°06'0 0.0
2017-Oct-15 23:58N 39°13' E 009°06'0 0.0
2017-Oct-15 23:28N 39°13' E 009°06'0 0.0
2017-Oct-15 22:58N 39°13' E 009°06'0 0.0
2017-Oct-15 22:28N 39°13' E 009°06'0 0.0
2017-Oct-15 21:58N 39°13' E 009°06'0 0.0
2017-Oct-15 21:28N 39°13' E 009°06'0 0.0
2017-Oct-15 20:58N 39°13' E 009°06'0 0.0
2017-Oct-15 20:28N 39°13' E 009°06'0 0.0
2017-Oct-15 19:58N 39°13' E 009°06'0 0.0
2017-Oct-15 19:28N 39°13' E 009°06'0 0.0
2017-Oct-15 18:58N 39°13' E 009°06'0 0.0
2017-Oct-15 18:28N 39°13' E 009°06'0 0.0
2017-Oct-15 17:58N 39°13' E 009°06'0 0.0
2017-Oct-15 17:28N 39°13' E 009°06'0 0.0
2017-Oct-15 16:58N 39°13' E 009°06'0 0.0
2017-Oct-15 16:28N 39°13' E 009°06'0 0.0
2017-Oct-15 15:58N 39°13' E 009°06'0 0.0
2017-Oct-15 15:28N 39°13' E 009°06'0 0.0
2017-Oct-15 14:58N 39°13' E 009°06'0 0.0
2017-Oct-15 13:58N 39°13' E 009°06'0 0.0
2017-Oct-15 13:28N 39°13' E 009°06'0 0.0
2017-Oct-15 12:58N 39°13' E 009°06'0 0.0
2017-Oct-15 12:28N 39°13' E 009°06'0 0.0
2017-Oct-15 11:58N 39°13' E 009°06'0 0.0
2017-Oct-15 11:28N 39°13' E 009°06'0 0.0
2017-Oct-15 10:58N 39°13' E 009°06'0 0.0
2017-Oct-15 10:25N 39°13' E 009°06'0 0.0
2017-Oct-15 09:58N 39°13' E 009°06'0 0.0
2017-Oct-15 09:28N 39°13' E 009°06'0 0.0
2017-Oct-15 08:58N 39°13' E 009°06'0 0.0
2017-Oct-15 08:28N 39°13' E 009°06'0 0.0
2017-Oct-15 07:58N 39°13' E 009°06'0 0.0
2017-Oct-15 07:28N 39°13' E 009°06'0 0.0
2017-Oct-15 06:58N 39°13' E 009°06'0 0.0
2017-Oct-15 06:28N 39°13' E 009°06'0 0.0
2017-Oct-15 05:58N 39°13' E 009°06'0 0.1
2017-Oct-15 05:30N 39°13' E 009°06'4 7.2
2017-Oct-15 05:00N 39°09' E 009°09'918.9
2017-Oct-15 04:30N 39°04' E 009°19'919.3
2017-Oct-15 04:00N 38°59' E 009°29'5619.1
2017-Oct-15 01:05N 38°46' E 010°39'219.5
2017-Oct-15 00:59N 38°46' E 010°41'919.6
2017-Oct-15 00:30N 38°44' E 010°53'8519.6
2017-Oct-14 20:09N 38°25' E 012°39'319.9
2017-Oct-14 19:59N 38°24' E 012°43'1019.7
2017-Oct-14 19:30N 38°22' E 012°55'1019.7
2017-Oct-14 19:00N 38°19' E 013°07'1019.6
2017-Oct-14 18:30N 38°17' E 013°20'918.7
2017-Oct-14 18:00N 38°09' E 013°26'4 7.4
2017-Oct-14 17:30N 38°08' E 013°22'0 0.0
2017-Oct-14 16:58N 38°08' E 013°22'0 0.0
2017-Oct-14 16:28N 38°08' E 013°22'0 0.0
2017-Oct-14 15:58N 38°08' E 013°22'0 0.0
2017-Oct-14 15:28N 38°08' E 013°22'0 0.0
2017-Oct-14 14:58N 38°08' E 013°22'0 0.0
2017-Oct-14 14:28N 38°08' E 013°22'0 0.0
2017-Oct-14 13:58N 38°08' E 013°22'0 0.0
2017-Oct-14 13:28N 38°08' E 013°22'0 0.0
2017-Oct-14 12:58N 38°08' E 013°22'0 0.0
2017-Oct-14 12:28N 38°08' E 013°22'0 0.0
2017-Oct-14 11:58N 38°08' E 013°22'0 0.0
2017-Oct-14 11:28N 38°08' E 013°22'0 0.0
2017-Oct-14 10:58N 38°08' E 013°22'0 0.0
2017-Oct-14 10:28N 38°08' E 013°22'0 0.0
2017-Oct-14 09:58N 38°08' E 013°22'0 0.0
2017-Oct-14 09:28N 38°08' E 013°22'0 0.1
2017-Oct-14 08:55N 38°08' E 013°22'0 0.1
2017-Oct-14 08:28N 38°08' E 013°22'0 0.0
2017-Oct-14 07:58N 38°08' E 013°22'0 0.0
2017-Oct-14 07:28N 38°08' E 013°22'0 0.0
2017-Oct-14 06:58N 38°08' E 013°22'0 0.0
2017-Oct-14 06:28N 38°08' E 013°22'0 0.0
2017-Oct-14 05:58N 38°08' E 013°22'0 0.0
2017-Oct-14 05:30N 38°08' E 013°22'2 3.2
2017-Oct-14 05:01N 38°08' E 013°24'815.9
2017-Oct-14 04:31N 38°16' E 013°22'1019.3
2017-Oct-14 04:00N 38°18' E 013°10'1019.5
2017-Oct-14 03:30N 38°21' E 012°58'1019.5
2017-Oct-14 03:00N 38°23' E 012°46'15219.4
2017-Oct-13 19:10N 38°58' E 009°36'1219.5
2017-Oct-13 18:34N 39°03' E 009°23'119.7
2017-Oct-13 18:31N 39°03' E 009°21'1019.4
2017-Oct-13 18:00N 39°08' E 009°10'510.2
2017-Oct-13 17:29N 39°13' E 009°06'0 0.0
2017-Oct-13 17:00N 39°13' E 009°06'0 0.0
2017-Oct-13 16:30N 39°13' E 009°06'0 0.0
2017-Oct-13 16:00N 39°13' E 009°06'0 0.0
2017-Oct-13 15:30N 39°13' E 009°06'0 0.0
2017-Oct-13 10:21N 39°13' E 009°06'0 0.0
2017-Oct-13 10:00N 39°13' E 009°06'0 0.0
2017-Oct-13 09:30N 39°13' E 009°06'0 0.0
2017-Oct-13 09:00N 39°13' E 009°06'0 0.0
2017-Oct-13 08:30N 39°13' E 009°06'0 0.0
2017-Oct-13 08:00N 39°13' E 009°06'0 0.0
2017-Oct-13 07:30N 39°13' E 009°06'0 0.0
2017-Oct-13 07:00N 39°13' E 009°06'0 0.0
2017-Oct-13 06:30N 39°13' E 009°06'1 1.8
2017-Oct-13 06:00N 39°12' E 009°06'917.0
2017-Oct-13 05:30N 39°06' E 009°15'1121.1
2017-Oct-13 04:59N 39°01' E 009°27'22521.8
2017-Oct-12 18:40N 40°33' E 013°53'321.5
2017-Oct-12 18:30N 40°35' E 013°57'1121.4
2017-Oct-12 18:01N 40°41' E 014°08'1019.8
2017-Oct-12 17:31N 40°49' E 014°17'2 3.5
2017-Oct-12 17:00N 40°50' E 014°16'0 0.0
2017-Oct-12 16:30N 40°50' E 014°16'0 0.0
2017-Oct-12 16:00N 40°50' E 014°16'0 0.0
2017-Oct-12 15:30N 40°50' E 014°16'0 0.0
2017-Oct-12 15:00N 40°50' E 014°16'0 0.0
2017-Oct-12 13:48N 40°50' E 014°16'0 0.0
2017-Oct-12 13:30N 40°50' E 014°16'0 0.0
2017-Oct-12 12:48N 40°50' E 014°16'0 0.0
2017-Oct-12 10:54N 40°50' E 014°16'0 0.0
2017-Oct-12 10:24N 40°50' E 014°16'0 0.0
2017-Oct-12 09:36N 40°50' E 014°16'0 0.0
2017-Oct-12 09:24N 40°50' E 014°16'0 0.0
2017-Oct-12 08:54N 40°50' E 014°16'0 0.0
2017-Oct-12 08:24N 40°50' E 014°16'0 0.0
2017-Oct-12 07:12N 40°50' E 014°16'0 0.0
2017-Oct-12 06:54N 40°50' E 014°16'0 0.0
2017-Oct-12 06:30N 40°50' E 014°16'2 3.1
2017-Oct-12 05:59N 40°49' E 014°17'23321.1
2017-Oct-11 18:59N 39°04' E 009°47'1121.8
2017-Oct-11 18:30N 38°58' E 009°35'1320.5
2017-Oct-11 17:53N 39°03' E 009°20'821.5
2017-Oct-11 17:30N 39°08' E 009°12'612.3
2017-Oct-11 17:00N 39°13' E 009°07'23410.5
2017-Oct-10 18:39N 40°34' E 013°53'321.5
2017-Oct-10 18:30N 40°35' E 013°57'1121.2
2017-Oct-10 18:00N 40°41' E 014°08'1020.0
2017-Oct-10 17:29N 40°49' E 014°17'2 0.9
2017-Oct-10 15:45N 40°50' E 014°16'0 0.0
2017-Oct-10 15:15N 40°50' E 014°16'0 0.0
2017-Oct-10 14:51N 40°50' E 014°16'0 0.0
2017-Oct-10 13:51N 40°50' E 014°16'0 0.0
2017-Oct-10 13:21N 40°50' E 014°16'0 0.0
2017-Oct-10 12:51N 40°50' E 014°16'0 0.0
2017-Oct-10 12:21N 40°50' E 014°16'0 0.0
2017-Oct-10 11:51N 40°50' E 014°16'0 0.0
2017-Oct-10 11:21N 40°50' E 014°16'0 0.0
2017-Oct-10 10:51N 40°50' E 014°16'0 0.0
2017-Oct-10 09:27N 40°50' E 014°16'  

Dump ship's entire track history